sensor_id;sensor_type;location;lat;lon;timestamp;P1;P2;P0
55754;PMS5003;41674;52.290;-1.474;2024-01-11T00:00:24;4;4;
55754;PMS5003;41674;52.290;-1.474;2024-01-11T00:02:54;5;5;
55754;PMS5003;41674;52.290;-1.474;2024-01-11T00:05:24;7;5;
55754;PMS5003;41674;52.290;-1.474;2024-01-11T00:07:53;2;2;
55754;PMS5003;41674;52.290;-1.474;2024-01-11T00:10:23;4;4;
55754;PMS5003;41674;52.290;-1.474;2024-01-11T00:12:53;4;3;
55754;PMS5003;41674;52.290;-1.474;2024-01-11T00:15:23;6;4;
55754;PMS5003;41674;52.290;-1.474;2024-01-11T00:17:52;3;2;
55754;PMS5003;41674;52.290;-1.474;2024-01-11T00:20:22;6;6;
55754;PMS5003;41674;52.290;-1.474;2024-01-11T00:22:52;4;4;
55754;PMS5003;41674;52.290;-1.474;2024-01-11T00:25:23;4;4;
55754;PMS5003;41674;52.290;-1.474;2024-01-11T00:27:51;5;5;
55754;PMS5003;41674;52.290;-1.474;2024-01-11T00:30:23;3;3;
55754;PMS5003;41674;52.290;-1.474;2024-01-11T00:32:51;4;4;
55754;PMS5003;41674;52.290;-1.474;2024-01-11T00:35:20;4;4;
55754;PMS5003;41674;52.290;-1.474;2024-01-11T00:37:50;5;5;
55754;PMS5003;41674;52.290;-1.474;2024-01-11T00:40:20;5;5;
55754;PMS5003;41674;52.290;-1.474;2024-01-11T00:42:50;5;5;
55754;PMS5003;41674;52.290;-1.474;2024-01-11T00:45:19;7;5;
55754;PMS5003;41674;52.290;-1.474;2024-01-11T00:47:49;9;6;
55754;PMS5003;41674;52.290;-1.474;2024-01-11T00:50:19;7;6;
55754;PMS5003;41674;52.290;-1.474;2024-01-11T00:52:49;6;5;
55754;PMS5003;41674;52.290;-1.474;2024-01-11T00:55:18;6;6;
55754;PMS5003;41674;52.290;-1.474;2024-01-11T00:57:48;8;6;
55754;PMS5003;41674;52.290;-1.474;2024-01-11T01:00:19;9;5;
55754;PMS5003;41674;52.290;-1.474;2024-01-11T01:02:47;7;6;
55754;PMS5003;41674;52.290;-1.474;2024-01-11T01:05:17;7;5;
55754;PMS5003;41674;52.290;-1.474;2024-01-11T01:07:47;8;5;
55754;PMS5003;41674;52.290;-1.474;2024-01-11T01:10:17;5;5;
55754;PMS5003;41674;52.290;-1.474;2024-01-11T01:12:46;9;7;
55754;PMS5003;41674;52.290;-1.474;2024-01-11T01:15:16;5;5;
55754;PMS5003;41674;52.290;-1.474;2024-01-11T01:17:46;6;6;
55754;PMS5003;41674;52.290;-1.474;2024-01-11T01:20:16;7;6;
55754;PMS5003;41674;52.290;-1.474;2024-01-11T01:22:46;6;6;
55754;PMS5003;41674;52.290;-1.474;2024-01-11T01:25:15;7;7;
55754;PMS5003;41674;52.290;-1.474;2024-01-11T01:27:45;7;7;
55754;PMS5003;41674;52.290;-1.474;2024-01-11T01:30:15;7;7;
55754;PMS5003;41674;52.290;-1.474;2024-01-11T01:32:44;6;6;
55754;PMS5003;41674;52.290;-1.474;2024-01-11T01:35:15;7;7;
55754;PMS5003;41674;52.290;-1.474;2024-01-11T01:37:44;7;7;
55754;PMS5003;41674;52.290;-1.474;2024-01-11T01:40:14;5;5;
55754;PMS5003;41674;52.290;-1.474;2024-01-11T01:42:44;6;5;
55754;PMS5003;41674;52.290;-1.474;2024-01-11T01:45:14;7;7;
55754;PMS5003;41674;52.290;-1.474;2024-01-11T01:47:43;7;6;
55754;PMS5003;41674;52.290;-1.474;2024-01-11T01:50:13;10;7;
55754;PMS5003;41674;52.290;-1.474;2024-01-11T01:52:43;6;4;
55754;PMS5003;41674;52.290;-1.474;2024-01-11T01:55:12;4;4;
55754;PMS5003;41674;52.290;-1.474;2024-01-11T01:57:42;5;5;
55754;PMS5003;41674;52.290;-1.474;2024-01-11T02:00:12;7;7;
55754;PMS5003;41674;52.290;-1.474;2024-01-11T02:02:42;5;3;
55754;PMS5003;41674;52.290;-1.474;2024-01-11T02:05:11;6;6;
55754;PMS5003;41674;52.290;-1.474;2024-01-11T02:07:41;7;5;
55754;PMS5003;41674;52.290;-1.474;2024-01-11T02:10:11;5;5;
55754;PMS5003;41674;52.290;-1.474;2024-01-11T02:12:41;6;5;
55754;PMS5003;41674;52.290;-1.474;2024-01-11T02:15:11;6;6;
55754;PMS5003;41674;52.290;-1.474;2024-01-11T02:17:40;6;6;
55754;PMS5003;41674;52.290;-1.474;2024-01-11T02:20:10;6;6;
55754;PMS5003;41674;52.290;-1.474;2024-01-11T02:22:40;5;5;
55754;PMS5003;41674;52.290;-1.474;2024-01-11T02:25:09;7;5;
55754;PMS5003;41674;52.290;-1.474;2024-01-11T02:27:45;4;4;
55754;PMS5003;41674;52.290;-1.474;2024-01-11T02:30:09;4;4;
55754;PMS5003;41674;52.290;-1.474;2024-01-11T02:32:39;6;6;
55754;PMS5003;41674;52.290;-1.474;2024-01-11T02:35:08;7;6;
55754;PMS5003;41674;52.290;-1.474;2024-01-11T02:37:38;6;6;
55754;PMS5003;41674;52.290;-1.474;2024-01-11T02:40:08;5;4;
55754;PMS5003;41674;52.290;-1.474;2024-01-11T02:42:38;6;6;
55754;PMS5003;41674;52.290;-1.474;2024-01-11T02:45:08;9;6;
55754;PMS5003;41674;52.290;-1.474;2024-01-11T02:47:37;9;7;
55754;PMS5003;41674;52.290;-1.474;2024-01-11T02:50:07;5;5;
55754;PMS5003;41674;52.290;-1.474;2024-01-11T02:52:37;7;6;
55754;PMS5003;41674;52.290;-1.474;2024-01-11T02:55:06;7;7;
55754;PMS5003;41674;52.290;-1.474;2024-01-11T02:57:36;8;8;
55754;PMS5003;41674;52.290;-1.474;2024-01-11T03:00:06;10;7;
55754;PMS5003;41674;52.290;-1.474;2024-01-11T03:02:36;6;6;
55754;PMS5003;41674;52.290;-1.474;2024-01-11T03:05:05;6;6;
55754;PMS5003;41674;52.290;-1.474;2024-01-11T03:07:35;6;6;
55754;PMS5003;41674;52.290;-1.474;2024-01-11T03:10:05;7;7;
55754;PMS5003;41674;52.290;-1.474;2024-01-11T03:12:35;8;6;
55754;PMS5003;41674;52.290;-1.474;2024-01-11T03:15:06;6;6;
55754;PMS5003;41674;52.290;-1.474;2024-01-11T03:17:34;5;5;
55754;PMS5003;41674;52.290;-1.474;2024-01-11T03:20:04;5;5;
55754;PMS5003;41674;52.290;-1.474;2024-01-11T03:22:33;5;5;
55754;PMS5003;41674;52.290;-1.474;2024-01-11T03:25:03;6;5;
55754;PMS5003;41674;52.290;-1.474;2024-01-11T03:27:32;5;5;
55754;PMS5003;41674;52.290;-1.474;2024-01-11T03:30:03;8;5;
55754;PMS5003;41674;52.290;-1.474;2024-01-11T03:32:32;6;6;
55754;PMS5003;41674;52.290;-1.474;2024-01-11T03:35:03;5;4;
55754;PMS5003;41674;52.290;-1.474;2024-01-11T03:37:31;5;4;
55754;PMS5003;41674;52.290;-1.474;2024-01-11T03:40:02;4;4;
55754;PMS5003;41674;52.290;-1.474;2024-01-11T03:42:31;6;5;
55754;PMS5003;41674;52.290;-1.474;2024-01-11T03:45:03;5;5;
55754;PMS5003;41674;52.290;-1.474;2024-01-11T03:47:32;4;4;
55754;PMS5003;41674;52.290;-1.474;2024-01-11T03:50:00;6;5;
55754;PMS5003;41674;52.290;-1.474;2024-01-11T03:52:30;4;3;
55754;PMS5003;41674;52.290;-1.474;2024-01-11T03:54:59;7;6;
55754;PMS5003;41674;52.290;-1.474;2024-01-11T03:57:29;4;4;
55754;PMS5003;41674;52.290;-1.474;2024-01-11T03:59:59;5;5;
55754;PMS5003;41674;52.290;-1.474;2024-01-11T04:02:29;5;4;
55754;PMS5003;41674;52.290;-1.474;2024-01-11T04:04:58;3;3;
55754;PMS5003;41674;52.290;-1.474;2024-01-11T04:07:28;6;4;
55754;PMS5003;41674;52.290;-1.474;2024-01-11T04:09:58;6;6;
55754;PMS5003;41674;52.290;-1.474;2024-01-11T04:12:28;6;5;
55754;PMS5003;41674;52.290;-1.474;2024-01-11T04:14:57;6;5;
55754;PMS5003;41674;52.290;-1.474;2024-01-11T04:17:27;6;5;
55754;PMS5003;41674;52.290;-1.474;2024-01-11T04:19:57;3;3;
55754;PMS5003;41674;52.290;-1.474;2024-01-11T04:22:27;4;4;
55754;PMS5003;41674;52.290;-1.474;2024-01-11T04:24:56;5;3;
55754;PMS5003;41674;52.290;-1.474;2024-01-11T04:27:26;4;4;
55754;PMS5003;41674;52.290;-1.474;2024-01-11T04:29:58;5;5;
55754;PMS5003;41674;52.290;-1.474;2024-01-11T04:32:26;4;4;
55754;PMS5003;41674;52.290;-1.474;2024-01-11T04:34:55;4;4;
55754;PMS5003;41674;52.290;-1.474;2024-01-11T04:37:25;5;4;
55754;PMS5003;41674;52.290;-1.474;2024-01-11T04:39:55;5;3;
55754;PMS5003;41674;52.290;-1.474;2024-01-11T04:42:25;5;5;
55754;PMS5003;41674;52.290;-1.474;2024-01-11T04:44:54;4;3;
55754;PMS5003;41674;52.290;-1.474;2024-01-11T04:47:26;9;4;
55754;PMS5003;41674;52.290;-1.474;2024-01-11T04:49:54;4;4;
55754;PMS5003;41674;52.290;-1.474;2024-01-11T04:52:24;4;4;
55754;PMS5003;41674;52.290;-1.474;2024-01-11T04:54:53;5;4;
55754;PMS5003;41674;52.290;-1.474;2024-01-11T04:57:23;7;6;
55754;PMS5003;41674;52.290;-1.474;2024-01-11T04:59:53;3;3;
55754;PMS5003;41674;52.290;-1.474;2024-01-11T05:02:23;5;5;
55754;PMS5003;41674;52.290;-1.474;2024-01-11T05:04:52;9;5;
55754;PMS5003;41674;52.290;-1.474;2024-01-11T05:07:22;5;4;
55754;PMS5003;41674;52.290;-1.474;2024-01-11T05:09:52;5;4;
55754;PMS5003;41674;52.290;-1.474;2024-01-11T05:12:22;4;4;
55754;PMS5003;41674;52.290;-1.474;2024-01-11T05:14:51;3;3;
55754;PMS5003;41674;52.290;-1.474;2024-01-11T05:17:21;3;3;
55754;PMS5003;41674;52.290;-1.474;2024-01-11T05:19:51;2;2;
55754;PMS5003;41674;52.290;-1.474;2024-01-11T05:22:21;3;3;
55754;PMS5003;41674;52.290;-1.474;2024-01-11T05:24:50;5;3;
55754;PMS5003;41674;52.290;-1.474;2024-01-11T05:27:20;3;3;
55754;PMS5003;41674;52.290;-1.474;2024-01-11T05:29:50;4;4;
55754;PMS5003;41674;52.290;-1.474;2024-01-11T05:32:20;2;2;
55754;PMS5003;41674;52.290;-1.474;2024-01-11T05:34:49;3;3;
55754;PMS5003;41674;52.290;-1.474;2024-01-11T05:37:21;5;5;
55754;PMS5003;41674;52.290;-1.474;2024-01-11T05:39:49;4;4;
55754;PMS5003;41674;52.290;-1.474;2024-01-11T05:42:18;4;3;
55754;PMS5003;41674;52.290;-1.474;2024-01-11T05:44:48;4;4;
55754;PMS5003;41674;52.290;-1.474;2024-01-11T05:47:19;4;4;
55754;PMS5003;41674;52.290;-1.474;2024-01-11T05:49:48;3;3;
55754;PMS5003;41674;52.290;-1.474;2024-01-11T05:52:17;4;3;
55754;PMS5003;41674;52.290;-1.474;2024-01-11T05:54:47;4;2;
55754;PMS5003;41674;52.290;-1.474;2024-01-11T05:57:18;4;3;
55754;PMS5003;41674;52.290;-1.474;2024-01-11T05:59:47;5;5;
55754;PMS5003;41674;52.290;-1.474;2024-01-11T06:02:18;6;3;
55754;PMS5003;41674;52.290;-1.474;2024-01-11T06:04:46;6;6;
55754;PMS5003;41674;52.290;-1.474;2024-01-11T06:07:16;3;3;
55754;PMS5003;41674;52.290;-1.474;2024-01-11T06:09:46;6;4;
55754;PMS5003;41674;52.290;-1.474;2024-01-11T06:12:15;3;2;
55754;PMS5003;41674;52.290;-1.474;2024-01-11T06:14:45;5;3;
55754;PMS5003;41674;52.290;-1.474;2024-01-11T06:17:15;3;3;
55754;PMS5003;41674;52.290;-1.474;2024-01-11T06:19:45;5;4;
55754;PMS5003;41674;52.290;-1.474;2024-01-11T06:22:14;4;4;
55754;PMS5003;41674;52.290;-1.474;2024-01-11T06:24:44;3;3;
55754;PMS5003;41674;52.290;-1.474;2024-01-11T06:27:14;4;4;
55754;PMS5003;41674;52.290;-1.474;2024-01-11T06:29:45;7;6;
55754;PMS5003;41674;52.290;-1.474;2024-01-11T06:32:13;3;3;
55754;PMS5003;41674;52.290;-1.474;2024-01-11T06:34:43;4;3;
55754;PMS5003;41674;52.290;-1.474;2024-01-11T06:37:13;6;4;
55754;PMS5003;41674;52.290;-1.474;2024-01-11T06:39:42;5;4;
55754;PMS5003;41674;52.290;-1.474;2024-01-11T06:42:12;4;3;
55754;PMS5003;41674;52.290;-1.474;2024-01-11T06:44:42;4;4;
55754;PMS5003;41674;52.290;-1.474;2024-01-11T06:47:12;2;2;
55754;PMS5003;41674;52.290;-1.474;2024-01-11T06:49:41;3;3;
55754;PMS5003;41674;52.290;-1.474;2024-01-11T06:52:11;4;4;
55754;PMS5003;41674;52.290;-1.474;2024-01-11T06:54:41;1;1;
55754;PMS5003;41674;52.290;-1.474;2024-01-11T06:57:11;5;4;
55754;PMS5003;41674;52.290;-1.474;2024-01-11T06:59:41;3;3;
55754;PMS5003;41674;52.290;-1.474;2024-01-11T07:02:10;3;3;
55754;PMS5003;41674;52.290;-1.474;2024-01-11T07:04:43;3;3;
55754;PMS5003;41674;52.290;-1.474;2024-01-11T07:07:10;3;3;
55754;PMS5003;41674;52.290;-1.474;2024-01-11T07:09:39;3;2;
55754;PMS5003;41674;52.290;-1.474;2024-01-11T07:12:09;3;3;
55754;PMS5003;41674;52.290;-1.474;2024-01-11T07:14:39;4;4;
55754;PMS5003;41674;52.290;-1.474;2024-01-11T07:17:08;3;3;
55754;PMS5003;41674;52.290;-1.474;2024-01-11T07:19:40;5;5;
55754;PMS5003;41674;52.290;-1.474;2024-01-11T07:22:08;5;3;
55754;PMS5003;41674;52.290;-1.474;2024-01-11T07:24:38;3;3;
55754;PMS5003;41674;52.290;-1.474;2024-01-11T07:27:08;5;5;
55754;PMS5003;41674;52.290;-1.474;2024-01-11T07:29:37;3;3;
55754;PMS5003;41674;52.290;-1.474;2024-01-11T07:32:07;3;3;
55754;PMS5003;41674;52.290;-1.474;2024-01-11T07:34:37;3;3;
55754;PMS5003;41674;52.290;-1.474;2024-01-11T07:37:06;3;3;
55754;PMS5003;41674;52.290;-1.474;2024-01-11T07:39:36;3;3;
55754;PMS5003;41674;52.290;-1.474;2024-01-11T07:42:06;4;4;
55754;PMS5003;41674;52.290;-1.474;2024-01-11T07:44:36;4;4;
55754;PMS5003;41674;52.290;-1.474;2024-01-11T07:47:07;3;3;
55754;PMS5003;41674;52.290;-1.474;2024-01-11T07:49:35;4;3;
55754;PMS5003;41674;52.290;-1.474;2024-01-11T07:52:05;3;3;
55754;PMS5003;41674;52.290;-1.474;2024-01-11T07:54:35;3;3;
55754;PMS5003;41674;52.290;-1.474;2024-01-11T07:57:04;2;2;
55754;PMS5003;41674;52.290;-1.474;2024-01-11T07:59:34;3;3;
55754;PMS5003;41674;52.290;-1.474;2024-01-11T08:02:04;3;3;
55754;PMS5003;41674;52.290;-1.474;2024-01-11T08:04:33;3;3;
55754;PMS5003;41674;52.290;-1.474;2024-01-11T08:07:03;4;3;
55754;PMS5003;41674;52.290;-1.474;2024-01-11T08:09:33;2;2;
55754;PMS5003;41674;52.290;-1.474;2024-01-11T08:12:03;3;3;
55754;PMS5003;41674;52.290;-1.474;2024-01-11T08:14:32;4;3;
55754;PMS5003;41674;52.290;-1.474;2024-01-11T08:17:02;3;3;
55754;PMS5003;41674;52.290;-1.474;2024-01-11T08:19:32;2;2;
55754;PMS5003;41674;52.290;-1.474;2024-01-11T08:22:02;3;3;
55754;PMS5003;41674;52.290;-1.474;2024-01-11T08:24:33;2;1;
55754;PMS5003;41674;52.290;-1.474;2024-01-11T08:27:01;4;4;
55754;PMS5003;41674;52.290;-1.474;2024-01-11T08:29:31;4;3;
55754;PMS5003;41674;52.290;-1.474;2024-01-11T08:32:00;2;2;
55754;PMS5003;41674;52.290;-1.474;2024-01-11T08:34:30;4;3;
55754;PMS5003;41674;52.290;-1.474;2024-01-11T08:37:00;3;3;
55754;PMS5003;41674;52.290;-1.474;2024-01-11T08:39:30;3;3;
55754;PMS5003;41674;52.290;-1.474;2024-01-11T08:41:59;5;3;
55754;PMS5003;41674;52.290;-1.474;2024-01-11T08:44:29;3;2;
55754;PMS5003;41674;52.290;-1.474;2024-01-11T08:47:00;1;1;
55754;PMS5003;41674;52.290;-1.474;2024-01-11T08:49:29;3;2;
55754;PMS5003;41674;52.290;-1.474;2024-01-11T08:51:59;3;3;
55754;PMS5003;41674;52.290;-1.474;2024-01-11T08:54:28;3;3;
55754;PMS5003;41674;52.290;-1.474;2024-01-11T08:56:58;3;3;
55754;PMS5003;41674;52.290;-1.474;2024-01-11T08:59:27;4;3;
55754;PMS5003;41674;52.290;-1.474;2024-01-11T09:01:57;4;4;
55754;PMS5003;41674;52.290;-1.474;2024-01-11T09:04:29;3;3;
55754;PMS5003;41674;52.290;-1.474;2024-01-11T09:06:57;4;3;
55754;PMS5003;41674;52.290;-1.474;2024-01-11T09:09:27;3;3;
55754;PMS5003;41674;52.290;-1.474;2024-01-11T09:11:58;4;4;
55754;PMS5003;41674;52.290;-1.474;2024-01-11T09:14:26;3;3;
55754;PMS5003;41674;52.290;-1.474;2024-01-11T09:16:56;4;4;
55754;PMS5003;41674;52.290;-1.474;2024-01-11T09:19:25;2;2;
55754;PMS5003;41674;52.290;-1.474;2024-01-11T09:21:57;3;3;
55754;PMS5003;41674;52.290;-1.474;2024-01-11T09:24:25;4;2;
55754;PMS5003;41674;52.290;-1.474;2024-01-11T09:26:55;3;3;
55754;PMS5003;41674;52.290;-1.474;2024-01-11T09:29:26;3;3;
55754;PMS5003;41674;52.290;-1.474;2024-01-11T09:31:54;4;4;
55754;PMS5003;41674;52.290;-1.474;2024-01-11T09:34:25;5;4;
55754;PMS5003;41674;52.290;-1.474;2024-01-11T09:36:53;3;3;
55754;PMS5003;41674;52.290;-1.474;2024-01-11T09:39:23;4;4;
55754;PMS5003;41674;52.290;-1.474;2024-01-11T09:41:56;5;5;
55754;PMS5003;41674;52.290;-1.474;2024-01-11T09:44:23;4;4;
55754;PMS5003;41674;52.290;-1.474;2024-01-11T09:46:53;3;2;
55754;PMS5003;41674;52.290;-1.474;2024-01-11T09:49:22;5;5;
55754;PMS5003;41674;52.290;-1.474;2024-01-11T09:51:52;4;4;
55754;PMS5003;41674;52.290;-1.474;2024-01-11T09:54:22;5;2;
55754;PMS5003;41674;52.290;-1.474;2024-01-11T09:56:53;6;4;
55754;PMS5003;41674;52.290;-1.474;2024-01-11T09:59:21;5;2;
55754;PMS5003;41674;52.290;-1.474;2024-01-11T10:01:51;4;4;
55754;PMS5003;41674;52.290;-1.474;2024-01-11T10:04:20;4;4;
55754;PMS5003;41674;52.290;-1.474;2024-01-11T10:06:50;4;4;
55754;PMS5003;41674;52.290;-1.474;2024-01-11T10:09:20;4;4;
55754;PMS5003;41674;52.290;-1.474;2024-01-11T10:11:50;3;3;
55754;PMS5003;41674;52.290;-1.474;2024-01-11T10:14:20;3;1;
55754;PMS5003;41674;52.290;-1.474;2024-01-11T10:16:49;3;3;
55754;PMS5003;41674;52.290;-1.474;2024-01-11T10:19:19;2;2;
55754;PMS5003;41674;52.290;-1.474;2024-01-11T10:21:49;2;2;
55754;PMS5003;41674;52.290;-1.474;2024-01-11T10:24:18;3;1;
55754;PMS5003;41674;52.290;-1.474;2024-01-11T10:26:48;4;4;
55754;PMS5003;41674;52.290;-1.474;2024-01-11T10:29:18;2;2;
55754;PMS5003;41674;52.290;-1.474;2024-01-11T10:34:17;3;3;
55754;PMS5003;41674;52.290;-1.474;2024-01-11T10:36:47;4;4;
55754;PMS5003;41674;52.290;-1.474;2024-01-11T10:39:17;3;1;
55754;PMS5003;41674;52.290;-1.474;2024-01-11T10:41:47;4;3;
55754;PMS5003;41674;52.290;-1.474;2024-01-11T10:44:18;1;1;
55754;PMS5003;41674;52.290;-1.474;2024-01-11T10:46:46;3;3;
55754;PMS5003;41674;52.290;-1.474;2024-01-11T10:49:17;3;3;
55754;PMS5003;41674;52.290;-1.474;2024-01-11T10:51:48;5;5;
55754;PMS5003;41674;52.290;-1.474;2024-01-11T10:54:15;3;2;
55754;PMS5003;41674;52.290;-1.474;2024-01-11T10:56:45;4;4;
55754;PMS5003;41674;52.290;-1.474;2024-01-11T10:59:14;3;3;
55754;PMS5003;41674;52.290;-1.474;2024-01-11T11:01:44;3;3;
55754;PMS5003;41674;52.290;-1.474;2024-01-11T11:04:14;4;2;
55754;PMS5003;41674;52.290;-1.474;2024-01-11T11:06:43;3;2;
55754;PMS5003;41674;52.290;-1.474;2024-01-11T11:09:13;2;2;
55754;PMS5003;41674;52.290;-1.474;2024-01-11T11:11:43;3;3;
55754;PMS5003;41674;52.290;-1.474;2024-01-11T11:14:13;2;2;
55754;PMS5003;41674;52.290;-1.474;2024-01-11T11:16:42;6;3;
55754;PMS5003;41674;52.290;-1.474;2024-01-11T11:19:12;2;2;
55754;PMS5003;41674;52.290;-1.474;2024-01-11T11:21:42;4;4;
55754;PMS5003;41674;52.290;-1.474;2024-01-11T11:24:12;2;2;
55754;PMS5003;41674;52.290;-1.474;2024-01-11T11:26:41;4;4;
55754;PMS5003;41674;52.290;-1.474;2024-01-11T11:29:10;6;5;
55754;PMS5003;41674;52.290;-1.474;2024-01-11T11:31:41;3;3;
55754;PMS5003;41674;52.290;-1.474;2024-01-11T11:34:10;3;3;
55754;PMS5003;41674;52.290;-1.474;2024-01-11T11:36:39;9;8;
55754;PMS5003;41674;52.290;-1.474;2024-01-11T11:39:10;4;4;
55754;PMS5003;41674;52.290;-1.474;2024-01-11T11:41:39;5;4;
55754;PMS5003;41674;52.290;-1.474;2024-01-11T11:44:09;10;9;
55754;PMS5003;41674;52.290;-1.474;2024-01-11T11:46:40;4;2;
55754;PMS5003;41674;52.290;-1.474;2024-01-11T11:49:08;5;4;
55754;PMS5003;41674;52.290;-1.474;2024-01-11T11:51:38;4;3;
55754;PMS5003;41674;52.290;-1.474;2024-01-11T11:54:08;6;5;
55754;PMS5003;41674;52.290;-1.474;2024-01-11T11:56:37;4;4;
55754;PMS5003;41674;52.290;-1.474;2024-01-11T11:59:07;4;4;
55754;PMS5003;41674;52.290;-1.474;2024-01-11T12:01:37;3;3;
55754;PMS5003;41674;52.290;-1.474;2024-01-11T12:04:08;4;4;
55754;PMS5003;41674;52.290;-1.474;2024-01-11T12:06:36;4;4;
55754;PMS5003;41674;52.290;-1.474;2024-01-11T12:09:05;5;4;
55754;PMS5003;41674;52.290;-1.474;2024-01-11T12:11:35;3;3;
55754;PMS5003;41674;52.290;-1.474;2024-01-11T12:14:05;5;5;
55754;PMS5003;41674;52.290;-1.474;2024-01-11T12:16:34;7;6;
55754;PMS5003;41674;52.290;-1.474;2024-01-11T12:19:04;7;7;
55754;PMS5003;41674;52.290;-1.474;2024-01-11T12:21:34;9;7;
55754;PMS5003;41674;52.290;-1.474;2024-01-11T12:24:04;5;5;
55754;PMS5003;41674;52.290;-1.474;2024-01-11T12:26:33;7;7;
55754;PMS5003;41674;52.290;-1.474;2024-01-11T12:29:03;7;7;
55754;PMS5003;41674;52.290;-1.474;2024-01-11T12:31:33;6;5;
55754;PMS5003;41674;52.290;-1.474;2024-01-11T12:34:02;9;7;
55754;PMS5003;41674;52.290;-1.474;2024-01-11T12:36:32;3;3;
55754;PMS5003;41674;52.290;-1.474;2024-01-11T12:39:01;4;4;
55754;PMS5003;41674;52.290;-1.474;2024-01-11T12:41:33;4;4;
55754;PMS5003;41674;52.290;-1.474;2024-01-11T12:44:01;5;4;
55754;PMS5003;41674;52.290;-1.474;2024-01-11T12:46:32;5;5;
55754;PMS5003;41674;52.290;-1.474;2024-01-11T12:49:00;5;2;
55754;PMS5003;41674;52.290;-1.474;2024-01-11T12:51:30;5;4;
55754;PMS5003;41674;52.290;-1.474;2024-01-11T12:54:00;4;4;
55754;PMS5003;41674;52.290;-1.474;2024-01-11T12:56:29;6;6;
55754;PMS5003;41674;52.290;-1.474;2024-01-11T12:59:05;7;5;
55754;PMS5003;41674;52.290;-1.474;2024-01-11T13:01:28;7;6;
55754;PMS5003;41674;52.290;-1.474;2024-01-11T13:03:58;8;7;
55754;PMS5003;41674;52.290;-1.474;2024-01-11T13:06:28;7;7;
55754;PMS5003;41674;52.290;-1.474;2024-01-11T13:08:58;4;3;
55754;PMS5003;41674;52.290;-1.474;2024-01-11T13:11:27;4;3;
55754;PMS5003;41674;52.290;-1.474;2024-01-11T13:13:57;7;7;
55754;PMS5003;41674;52.290;-1.474;2024-01-11T13:16:27;4;4;
55754;PMS5003;41674;52.290;-1.474;2024-01-11T13:18:56;4;4;
55754;PMS5003;41674;52.290;-1.474;2024-01-11T13:21:26;6;6;
55754;PMS5003;41674;52.290;-1.474;2024-01-11T13:23:56;6;6;
55754;PMS5003;41674;52.290;-1.474;2024-01-11T13:26:25;6;6;
55754;PMS5003;41674;52.290;-1.474;2024-01-11T13:28:57;5;4;
55754;PMS5003;41674;52.290;-1.474;2024-01-11T13:31:25;4;4;
55754;PMS5003;41674;52.290;-1.474;2024-01-11T13:33:56;3;3;
55754;PMS5003;41674;52.290;-1.474;2024-01-11T13:36:24;3;3;
55754;PMS5003;41674;52.290;-1.474;2024-01-11T13:38:54;4;4;
55754;PMS5003;41674;52.290;-1.474;2024-01-11T13:41:23;5;5;
55754;PMS5003;41674;52.290;-1.474;2024-01-11T13:43:53;4;4;
55754;PMS5003;41674;52.290;-1.474;2024-01-11T13:46:23;5;5;
55754;PMS5003;41674;52.290;-1.474;2024-01-11T13:48:52;8;7;
55754;PMS5003;41674;52.290;-1.474;2024-01-11T13:51:27;7;7;
55754;PMS5003;41674;52.290;-1.474;2024-01-11T13:53:53;5;5;
55754;PMS5003;41674;52.290;-1.474;2024-01-11T13:56:21;6;6;
55754;PMS5003;41674;52.290;-1.474;2024-01-11T13:58:51;6;6;
55754;PMS5003;41674;52.290;-1.474;2024-01-11T14:01:20;8;8;
55754;PMS5003;41674;52.290;-1.474;2024-01-11T14:03:50;10;8;
55754;PMS5003;41674;52.290;-1.474;2024-01-11T14:06:20;7;7;
55754;PMS5003;41674;52.290;-1.474;2024-01-11T14:08:49;10;10;
55754;PMS5003;41674;52.290;-1.474;2024-01-11T14:11:19;8;8;
55754;PMS5003;41674;52.290;-1.474;2024-01-11T14:13:49;11;10;
55754;PMS5003;41674;52.290;-1.474;2024-01-11T14:16:18;10;10;
55754;PMS5003;41674;52.290;-1.474;2024-01-11T14:18:47;15;12;
55754;PMS5003;41674;52.290;-1.474;2024-01-11T14:21:16;14;13;
55754;PMS5003;41674;52.290;-1.474;2024-01-11T14:23:46;15;11;
55754;PMS5003;41674;52.290;-1.474;2024-01-11T14:26:16;11;11;
55754;PMS5003;41674;52.290;-1.474;2024-01-11T14:28:45;19;13;
55754;PMS5003;41674;52.290;-1.474;2024-01-11T14:31:16;17;14;
55754;PMS5003;41674;52.290;-1.474;2024-01-11T14:33:45;18;16;
55754;PMS5003;41674;52.290;-1.474;2024-01-11T14:36:14;14;12;
55754;PMS5003;41674;52.290;-1.474;2024-01-11T14:38:44;12;12;
55754;PMS5003;41674;52.290;-1.474;2024-01-11T14:41:14;16;13;
55754;PMS5003;41674;52.290;-1.474;2024-01-11T14:43:43;12;12;
55754;PMS5003;41674;52.290;-1.474;2024-01-11T14:46:13;20;15;
55754;PMS5003;41674;52.290;-1.474;2024-01-11T14:48:42;13;13;
55754;PMS5003;41674;52.290;-1.474;2024-01-11T14:51:11;16;15;
55754;PMS5003;41674;52.290;-1.474;2024-01-11T14:53:40;13;13;
55754;PMS5003;41674;52.290;-1.474;2024-01-11T14:56:10;19;15;
55754;PMS5003;41674;52.290;-1.474;2024-01-11T14:58:40;17;14;
55754;PMS5003;41674;52.290;-1.474;2024-01-11T15:01:09;18;16;
55754;PMS5003;41674;52.290;-1.474;2024-01-11T15:03:39;17;14;
55754;PMS5003;41674;52.290;-1.474;2024-01-11T15:06:08;17;15;
55754;PMS5003;41674;52.290;-1.474;2024-01-11T15:08:38;13;12;
55754;PMS5003;41674;52.290;-1.474;2024-01-11T15:11:07;17;15;
55754;PMS5003;41674;52.290;-1.474;2024-01-11T15:13:38;15;13;
55754;PMS5003;41674;52.290;-1.474;2024-01-11T15:16:06;15;13;
55754;PMS5003;41674;52.290;-1.474;2024-01-11T15:18:36;17;14;
55754;PMS5003;41674;52.290;-1.474;2024-01-11T15:21:05;16;14;
55754;PMS5003;41674;52.290;-1.474;2024-01-11T15:23:35;14;12;
55754;PMS5003;41674;52.290;-1.474;2024-01-11T15:26:04;11;8;
55754;PMS5003;41674;52.290;-1.474;2024-01-11T15:28:34;9;7;
55754;PMS5003;41674;52.290;-1.474;2024-01-11T15:31:05;10;7;
55754;PMS5003;41674;52.290;-1.474;2024-01-11T15:33:33;10;9;
55754;PMS5003;41674;52.290;-1.474;2024-01-11T15:36:03;8;8;
55754;PMS5003;41674;52.290;-1.474;2024-01-11T15:38:33;7;7;
55754;PMS5003;41674;52.290;-1.474;2024-01-11T15:41:03;10;9;
55754;PMS5003;41674;52.290;-1.474;2024-01-11T15:43:32;10;10;
55754;PMS5003;41674;52.290;-1.474;2024-01-11T15:46:02;12;10;
55754;PMS5003;41674;52.290;-1.474;2024-01-11T15:48:32;15;14;
55754;PMS5003;41674;52.290;-1.474;2024-01-11T15:51:01;18;14;
55754;PMS5003;41674;52.290;-1.474;2024-01-11T15:53:30;15;12;
55754;PMS5003;41674;52.290;-1.474;2024-01-11T15:56:00;14;12;
55754;PMS5003;41674;52.290;-1.474;2024-01-11T15:58:29;15;12;
55754;PMS5003;41674;52.290;-1.474;2024-01-11T16:00:59;14;14;
55754;PMS5003;41674;52.290;-1.474;2024-01-11T16:03:28;15;12;
55754;PMS5003;41674;52.290;-1.474;2024-01-11T16:05:58;20;14;
55754;PMS5003;41674;52.290;-1.474;2024-01-11T16:08:27;18;12;
55754;PMS5003;41674;52.290;-1.474;2024-01-11T16:10:57;16;12;
55754;PMS5003;41674;52.290;-1.474;2024-01-11T16:13:26;17;14;
55754;PMS5003;41674;52.290;-1.474;2024-01-11T16:15:56;12;10;
55754;PMS5003;41674;52.290;-1.474;2024-01-11T16:18:25;9;8;
55754;PMS5003;41674;52.290;-1.474;2024-01-11T16:20:55;13;11;
55754;PMS5003;41674;52.290;-1.474;2024-01-11T16:23:24;10;6;
55754;PMS5003;41674;52.290;-1.474;2024-01-11T16:25:54;9;6;
55754;PMS5003;41674;52.290;-1.474;2024-01-11T16:28:23;5;5;
55754;PMS5003;41674;52.290;-1.474;2024-01-11T16:30:53;10;7;
55754;PMS5003;41674;52.290;-1.474;2024-01-11T16:33:23;11;6;
55754;PMS5003;41674;52.290;-1.474;2024-01-11T16:35:53;9;8;
55754;PMS5003;41674;52.290;-1.474;2024-01-11T16:38:22;8;5;
55754;PMS5003;41674;52.290;-1.474;2024-01-11T16:40:53;10;8;
55754;PMS5003;41674;52.290;-1.474;2024-01-11T16:43:21;7;5;
55754;PMS5003;41674;52.290;-1.474;2024-01-11T16:45:51;8;6;
55754;PMS5003;41674;52.290;-1.474;2024-01-11T16:48:21;7;6;